• Join FlightAware (Why Join?)
  • Login
  • US Flag 
10:56AM EDT


 

Airport Tracker/Info


-or-


 

Live Flight TrackerFlight Track Log ✈ N100WX ✈ 15-Apr-2013 ✈ KBED - KBKL

Flight Track Log - Related Links

Times and Time Zones

All times are in EDT time to prevent confusion due to time zone crossing. See the N100WX flight status page for this flight to view local times or setup timezone preferences in your user account.

Time Position Orientation Groundspeed Altitude Reporting Facility
EDT Latitude Longitude Course Direction KTS MPH feet Rate Location/Type
01:37PM 42.4667 -71.3167 304° West 168 193 1,000  Level KA90
01:37PM 42.4833 -71.3500 304° West 175 201 2,100 1,920 Climbing KA90
01:38PM 42.5167 -71.4000 312° West 224 258 4,000 1,380 Climbing KA90
01:40PM 42.6014 -71.3458 25° Northeast 247 284 5,800 1,800 Climbing Boston Center
01:41PM 42.6428 -71.2997 39° Northeast 231 266 8,800 2,400 Climbing Boston Center
01:42PM 42.7011 -71.2986 North 193 222 10,700 1,980 Climbing Boston Center
01:43PM 42.7122 -71.3664 283° West 155 178 12,900 2,040 Climbing Boston Center
01:44PM 42.7233 -71.4567 280° West 196 226 14,900 1,920 Climbing Boston Center
01:45PM 42.7303 -71.5328 277° West 235 270 16,700 1,800 Climbing Boston Center
01:46PM 42.7414 -71.6286 279° West 240 276 18,500 1,860 Climbing Boston Center
01:47PM 42.7544 -71.7219 281° West 240 276 20,600 1,860 Climbing Boston Center
01:48PM 42.7633 -71.8122 278° West 240 276 22,300 1,740 Climbing Boston Center
01:49PM 42.7764 -71.9281 279° West 245 282 24,400 1,620 Climbing Boston Center
01:50PM 42.7872 -72.0269 279° West 257 296 26,000 1,440 Climbing Boston Center
01:51PM 42.7981 -72.1317 278° West 269 310 27,400 1,380 Climbing Boston Center
01:52PM 42.8108 -72.2364 279° West 275 316 28,900 1,260 Climbing Boston Center
01:53PM 42.8256 -72.3325 282° West 281 323 29,900 540 Climbing Boston Center
01:54PM 42.8403 -72.4486 280° West 295 339 30,000  Climbing Boston Center
01:55PM 42.8525 -72.5731 278° West 319 367 30,000  Level Boston Center
01:56PM 42.8586 -72.6950 274° West 330 380 30,000  Level Boston Center
01:57PM 42.8708 -72.8394 277° West 340 391 30,000  Level Boston Center
01:58PM 42.8908 -73.0153 279° West 373 429 30,000  Level Boston Center
01:59PM 42.9047 -73.1517 278° West 373 429 30,000  Level Boston Center
02:00PM 42.9161 -73.2850 277° West 368 423 30,000  Level Boston Center
02:01PM 42.9275 -73.4211 277° West 368 423 30,000  Level Boston Center
02:02PM 42.9408 -73.5575 278° West 368 423 30,000  Level Boston Center
02:03PM 42.9542 -73.6967 278° West 368 423 30,000  Level Boston Center
02:04PM 42.9672 -73.8333 277° West 368 423 30,000  Level Boston Center
02:05PM 42.9778 -73.9697 276° West 368 423 30,000  Level Boston Center
02:06PM 42.9906 -74.1064 277° West 368 423 30,000  Level Boston Center
02:07PM 43.0050 -74.2431 278° West 368 423 30,000  Level Boston Center
02:08PM 43.0175 -74.3797 277° West 368 423 30,000  Level Boston Center
02:09PM 43.0275 -74.5192 276° West 368 423 30,000  Level Boston Center
02:10PM 43.0394 -74.6589 277° West 368 423 30,000  Level Boston Center
02:11PM 43.0497 -74.7786 277° West 368 423 30,000  Level Boston Center
02:12PM 43.0614 -74.9153 277° West 368 423 30,000  Level Boston Center
02:13PM 43.0708 -75.0522 275° West 368 423 30,000  Level Boston Center
02:14PM 43.0822 -75.1892 277° West 368 423 30,000  Level Boston Center
02:15PM 43.0933 -75.3289 276° West 368 423 30,000  Level Boston Center
02:16PM 43.1064 -75.4661 277° West 368 423 30,000  Level Boston Center
02:17PM 43.1153 -75.6003 275° West 368 423 30,000  Level Boston Center
02:18PM 43.1258 -75.7403 276° West 368 423 30,000  Level Boston Center
02:19PM 43.1364 -75.8747 276° West 368 423 30,000  Level Boston Center
02:20PM 43.1469 -76.0089 276° West 368 423 30,000  Level Boston Center
02:22PM 43.1389 -76.2808 268° West 364 419 30,000  Level Cleveland Center
02:23PM 43.0975 -76.4061 246° West 358 412 30,000  Level Cleveland Center
02:24PM 43.0583 -76.5308 247° West 358 412 30,000  Level Cleveland Center
02:25PM 43.0189 -76.6586 247° West 363 418 30,000  Level Cleveland Center
02:26PM 42.9733 -76.7947 245° Southwest 363 418 30,000  Level Cleveland Center
02:27PM 42.9317 -76.9222 246° West 363 418 30,000  Level Cleveland Center
02:28PM 42.8917 -77.0464 246° West 363 418 30,000  Level Cleveland Center
02:29PM 42.8497 -77.1733 246° West 363 418 30,000  Level Cleveland Center
02:30PM 42.8075 -77.3003 246° West 363 418 30,000  Level Cleveland Center
02:31PM 42.7672 -77.4239 246° West 363 418 30,000  Level Cleveland Center
02:32PM 42.7267 -77.5475 246° West 363 418 30,000  Level Cleveland Center
02:33PM 42.6900 -77.6594 246° West 363 418 30,000  Level Cleveland Center
02:34PM 42.6492 -77.7800 245° Southwest 363 418 30,000  Level Cleveland Center
02:35PM 42.6103 -77.9003 246° West 363 418 30,000  Level Cleveland Center
02:36PM 42.5692 -78.0175 245° Southwest 358 412 30,000  Level Cleveland Center
02:37PM 42.5281 -78.1406 246° West 358 412 30,000  Level Cleveland Center
02:38PM 42.4889 -78.2575 246° West 353 406 30,000  Level Cleveland Center
02:39PM 42.4475 -78.3742 244° Southwest 353 406 30,000  Level Cleveland Center
02:40PM 42.4100 -78.4908 247° West 348 400 30,000  Level Cleveland Center
02:41PM 42.3683 -78.6103 245° Southwest 348 400 30,000  Level Cleveland Center
02:42PM 42.3264 -78.7267 244° Southwest 348 400 30,000  Level Cleveland Center
02:43PM 42.2867 -78.8458 246° West 348 400 30,000  Level Cleveland Center
02:44PM 42.2444 -78.9619 244° Southwest 348 400 30,000  Level Cleveland Center
02:45PM 42.1983 -79.0922 244° Southwest 348 400 30,000  Level Cleveland Center
02:46PM 42.1644 -79.2161 250° West 348 400 30,000  Level Cleveland Center
02:47PM 42.1344 -79.3317 251° West 348 400 30,000  Level Cleveland Center
02:48PM 42.1044 -79.4525 252° West 348 400 30,000  Level Cleveland Center
02:49PM 42.0722 -79.5706 250° West 348 400 30,000 -180 Level Cleveland Center
02:50PM 42.0419 -79.6914 251° West 348 400 29,700 -900 Descending Cleveland Center
02:51PM 42.0094 -79.8092 250° West 348 400 28,200 -1,680 Descending Cleveland Center
02:52PM 41.9769 -79.9297 250° West 348 400 26,400 -1,860 Descending Cleveland Center
02:53PM 41.9461 -80.0444 250° West 348 400 24,500 -1,260 Descending Cleveland Center
02:54PM 41.9156 -80.1592 250° West 348 400 23,900 -1,320 Descending Cleveland Center
02:55PM 41.8844 -80.2736 250° West 343 395 21,900 -2,220 Descending Cleveland Center
02:56PM 41.8722 -80.3881 262° West 321 369 19,500 -2,340 Descending Cleveland Center
02:57PM 41.8600 -80.4967 261° West 303 349 17,300 -2,280 Descending Cleveland Center
02:58PM 41.8453 -80.6028 259° West 297 342 15,000 -2,340 Descending Cleveland Center
02:59PM 41.8328 -80.7086 261° West 297 342 12,700 -2,280 Descending Cleveland Center
03:00PM 41.8244 -80.7614 258° West 289 333 11,700 -1,800 Descending Cleveland Center
03:00PM 41.8181 -80.8144 261° West 292 336 10,900 -1,500 Descending Cleveland Center
03:01PM 41.8094 -80.8811 260° West 267 307 9,900 -1,500 Descending Cleveland Center
03:01PM 41.8053 -80.9119 260° West 285 328 9,400 -1,620 Descending Cleveland Center
03:02PM 41.7967 -80.9786 260° West 260 299 8,300 -1,320 Descending Cleveland Center
03:02PM 41.7944 -80.9953 260° West 274 315 8,100 -1,440 Descending Cleveland Center
03:03PM 41.7778 -81.0536 249° West 258 297 7,000 -1,500 Descending Cleveland Center
03:03PM 41.7692 -81.0786 245° Southwest 252 290 6,600 -1,620 Descending Cleveland Center
03:04PM 41.7439 -81.1425 242° Southwest 251 289 5,400 -1,500 Descending Cleveland Center
03:04PM 41.7356 -81.1592 236° Southwest 252 290 5,100 -1,500 Descending Cleveland Center
03:05PM 41.7081 -81.2200 239° Southwest 247 284 3,900 -1,500 Descending Cleveland Center
03:05PM 41.7017 -81.2394 246° West 252 290 3,600 -900 Descending Cleveland Center
03:06PM 41.6825 -81.2950 245° Southwest 201 231 3,000 -420 Descending Cleveland Center
03:07PM 41.6633 -81.3558 247° West 180 207 3,000  Level Cleveland Center
03:08PM 41.6442 -81.4167 247° West 191 220 3,000  Level Cleveland Center
03:09PM 41.6167 -81.4775 239° Southwest 208 239 3,100  Climbing Cleveland Center
03:10PM 41.5933 -81.5244 236° Southwest 133 153 3,000 -360 Descending Cleveland Center
03:11PM 41.5722 -81.5683 237° Southwest 149 171 2,500 -600 Descending Cleveland Center
03:12PM 41.5531 -81.6069 236° Southwest 118 136 1,900 -600 Descending Cleveland Center
03:13PM 41.5381 -81.6428 241° Southwest 102 117 1,300 -600 Descending Cleveland Center